TimeEDT,TemperatureF,Dew PointF,Humidity,Sea Level PressureIn,VisibilityMPH,Wind Direction,Wind SpeedMPH,Gust SpeedMPH,PrecipitationIn,Events,Conditions,WindDirDegrees,DateUTC
12:53 AM,55.0,48.0,77,30.14,10.0,Calm,Calm,-,N/A,,Clear,0,2013-08-23 04:53:00
1:53 AM,51.1,46.9,86,30.15,10.0,Calm,Calm,-,N/A,,Clear,0,2013-08-23 05:53:00
2:53 AM,48.9,45.0,86,30.16,10.0,Calm,Calm,-,N/A,,Clear,0,2013-08-23 06:53:00
3:53 AM,48.9,45.0,86,30.15,10.0,Calm,Calm,-,N/A,,Clear,0,2013-08-23 07:53:00
4:53 AM,43.0,41.0,93,30.17,10.0,Calm,Calm,-,N/A,,Clear,0,2013-08-23 08:53:00
5:53 AM,46.0,43.0,89,30.18,10.0,Calm,Calm,-,N/A,,Clear,0,2013-08-23 09:53:00
6:53 AM,46.0,43.0,89,30.19,10.0,Calm,Calm,-,N/A,,Clear,0,2013-08-23 10:53:00
7:53 AM,48.9,45.0,86,30.21,10.0,Calm,Calm,-,N/A,,Clear,0,2013-08-23 11:53:00
8:53 AM,61.0,55.0,81,30.21,10.0,NE,6.9,-,N/A,,Clear,40,2013-08-23 12:53:00
9:53 AM,64.0,55.0,73,30.22,10.0,Variable,4.6,-,N/A,,Clear,0,2013-08-23 13:53:00
10:53 AM,66.9,55.0,66,30.23,10.0,Calm,Calm,-,N/A,,Clear,0,2013-08-23 14:53:00
11:53 AM,70.0,52.0,53,30.22,10.0,ENE,6.9,-,N/A,,Clear,60,2013-08-23 15:53:00
12:53 PM,72.0,50.0,46,30.22,10.0,NE,6.9,-,N/A,,Clear,50,2013-08-23 16:53:00
1:53 PM,73.9,48.0,40,30.22,10.0,Calm,Calm,-,N/A,,Clear,0,2013-08-23 17:53:00
2:53 PM,75.0,46.9,37,30.20,10.0,Variable,4.6,-,N/A,,Mostly Cloudy,0,2013-08-23 18:53:00
3:53 PM,77.0,46.0,33,30.19,10.0,Calm,Calm,-,N/A,,Clear,0,2013-08-23 19:53:00
4:53 PM,75.9,46.0,35,30.19,10.0,Variable,4.6,-,N/A,,Mostly Cloudy,0,2013-08-23 20:53:00
5:53 PM,75.9,48.0,37,30.18,10.0,NNE,5.8,-,N/A,,Partly Cloudy,30,2013-08-23 21:53:00
6:53 PM,73.9,48.9,41,30.17,10.0,ENE,6.9,-,N/A,,Clear,60,2013-08-23 22:53:00
7:53 PM,71.1,52.0,51,30.19,10.0,East,6.9,-,N/A,,Clear,80,2013-08-23 23:53:00
8:53 PM,66.9,53.1,61,30.20,10.0,Variable,5.8,-,N/A,,Clear,0,2013-08-24 00:53:00
9:53 PM,66.0,51.1,59,30.22,10.0,SSE,5.8,-,N/A,,Overcast,150,2013-08-24 01:53:00
10:53 PM,64.0,51.1,63,30.22,10.0,SE,8.1,-,N/A,,Scattered Clouds,130,2013-08-24 02:53:00
11:53 PM,60.1,50.0,69,30.23,10.0,SSE,4.6,-,N/A,,Clear,150,2013-08-24 03:53:00